Aviation Digital Data Service (ADDS)

Output produced by METARs form (1128 UTC 19 January 2018)
found at http://www.aviationweather.gov/adds/metars/
 
LHPR 191045Z 25004KT 230V300 9999 SCT016 BKN040 BKN083 05/03 Q1009 RMK BLU
LHPR 191015Z 28008KT 230V300 9999 -RA BKN016 OVC083 05/03 Q1009 RMK WHT
LHPR 190945Z 23005KT 200V260 9999 -RA BKN033 OVC083 05/02 Q1009 RMK BLU
LHPR 190915Z VRB02KT 9999 -RA BKN040 OVC083 04/02 Q1008 RMK BLU
LHPR 190845Z VRB02KT 9999 BKN040 05/01 Q1007 RMK BLU
LHPR 190815Z VRB03KT 9999 BKN040 04/01 Q1007 RMK BLU
LHPR 190745Z 26003KT 9999 BKN043 04/01 Q1007 RMK BLU
LHPR 190715Z 24003KT 9999 BKN046 04/00 Q1007 RMK BLU
LHPR 190645Z 23004KT 200V260 CAVOK 03/00 Q1006 RMK BLU
LHPR 190615Z 24005KT 200V260 CAVOK 03/00 Q1006 RMK BLU
LHPR 190545Z 24007KT 200V260 CAVOK 04/01 Q1006 RMK BLU